sensor_id;sensor_type;location;lat;lon;timestamp;P1;durP1;ratioP1;P2;durP2;ratioP2
75898;SDS011;64576;50.460;4.866;2023-05-07T00:01:05;17.90;;;9.00;;
75898;SDS011;64576;50.460;4.866;2023-05-07T00:03:31;23.80;;;8.43;;
75898;SDS011;64576;50.460;4.866;2023-05-07T00:05:57;15.45;;;9.52;;
75898;SDS011;64576;50.460;4.866;2023-05-07T00:08:23;26.25;;;11.38;;
75898;SDS011;64576;50.460;4.866;2023-05-07T00:10:48;22.15;;;10.27;;
75898;SDS011;64576;50.460;4.866;2023-05-07T00:13:14;20.02;;;8.88;;
75898;SDS011;64576;50.460;4.866;2023-05-07T00:15:39;19.70;;;9.57;;
75898;SDS011;64576;50.460;4.866;2023-05-07T00:18:05;17.42;;;9.45;;
75898;SDS011;64576;50.460;4.866;2023-05-07T00:20:30;20.08;;;7.68;;
75898;SDS011;64576;50.460;4.866;2023-05-07T00:22:56;16.83;;;8.65;;
75898;SDS011;64576;50.460;4.866;2023-05-07T00:25:21;20.98;;;8.25;;
75898;SDS011;64576;50.460;4.866;2023-05-07T00:27:46;26.20;;;8.98;;
75898;SDS011;64576;50.460;4.866;2023-05-07T00:30:12;16.67;;;8.48;;
75898;SDS011;64576;50.460;4.866;2023-05-07T00:32:38;18.30;;;10.00;;
75898;SDS011;64576;50.460;4.866;2023-05-07T00:35:03;18.58;;;9.52;;
75898;SDS011;64576;50.460;4.866;2023-05-07T00:37:30;21.52;;;8.57;;
75898;SDS011;64576;50.460;4.866;2023-05-07T00:39:56;25.83;;;8.93;;
75898;SDS011;64576;50.460;4.866;2023-05-07T00:42:21;18.15;;;8.55;;
75898;SDS011;64576;50.460;4.866;2023-05-07T00:44:46;15.93;;;8.25;;
75898;SDS011;64576;50.460;4.866;2023-05-07T00:47:12;15.18;;;7.70;;
75898;SDS011;64576;50.460;4.866;2023-05-07T00:49:39;16.80;;;7.72;;
75898;SDS011;64576;50.460;4.866;2023-05-07T00:52:07;15.38;;;7.85;;
75898;SDS011;64576;50.460;4.866;2023-05-07T00:54:35;15.45;;;7.70;;
75898;SDS011;64576;50.460;4.866;2023-05-07T00:57:02;23.13;;;10.25;;
75898;SDS011;64576;50.460;4.866;2023-05-07T00:59:28;15.48;;;9.10;;
75898;SDS011;64576;50.460;4.866;2023-05-07T01:01:55;15.07;;;8.10;;
75898;SDS011;64576;50.460;4.866;2023-05-07T01:04:20;24.60;;;10.27;;
75898;SDS011;64576;50.460;4.866;2023-05-07T01:06:45;24.20;;;10.07;;
75898;SDS011;64576;50.460;4.866;2023-05-07T01:09:11;17.98;;;10.48;;
75898;SDS011;64576;50.460;4.866;2023-05-07T01:11:37;23.63;;;10.98;;
75898;SDS011;64576;50.460;4.866;2023-05-07T01:14:03;21.80;;;11.13;;
75898;SDS011;64576;50.460;4.866;2023-05-07T01:16:29;27.98;;;10.77;;
75898;SDS011;64576;50.460;4.866;2023-05-07T01:18:55;21.65;;;10.40;;
75898;SDS011;64576;50.460;4.866;2023-05-07T01:21:21;20.27;;;10.10;;
75898;SDS011;64576;50.460;4.866;2023-05-07T01:23:51;17.23;;;10.10;;
75898;SDS011;64576;50.460;4.866;2023-05-07T01:26:17;17.50;;;10.02;;
75898;SDS011;64576;50.460;4.866;2023-05-07T01:28:44;17.42;;;8.98;;
75898;SDS011;64576;50.460;4.866;2023-05-07T01:31:10;24.38;;;10.30;;
75898;SDS011;64576;50.460;4.866;2023-05-07T01:33:38;22.35;;;9.98;;
75898;SDS011;64576;50.460;4.866;2023-05-07T01:36:06;24.98;;;9.48;;
75898;SDS011;64576;50.460;4.866;2023-05-07T01:38:33;22.05;;;10.55;;
75898;SDS011;64576;50.460;4.866;2023-05-07T01:41:01;20.23;;;9.35;;
75898;SDS011;64576;50.460;4.866;2023-05-07T01:43:27;19.00;;;9.45;;
75898;SDS011;64576;50.460;4.866;2023-05-07T01:45:54;19.23;;;9.40;;
75898;SDS011;64576;50.460;4.866;2023-05-07T01:48:20;21.67;;;11.50;;
75898;SDS011;64576;50.460;4.866;2023-05-07T01:50:46;31.17;;;13.10;;
75898;SDS011;64576;50.460;4.866;2023-05-07T01:53:12;19.27;;;10.07;;
75898;SDS011;64576;50.460;4.866;2023-05-07T01:55:37;26.42;;;11.30;;
75898;SDS011;64576;50.460;4.866;2023-05-07T01:58:03;20.58;;;9.90;;
75898;SDS011;64576;50.460;4.866;2023-05-07T02:00:29;29.23;;;10.57;;
75898;SDS011;64576;50.460;4.866;2023-05-07T02:02:54;28.23;;;11.65;;
75898;SDS011;64576;50.460;4.866;2023-05-07T02:05:20;29.60;;;11.80;;
75898;SDS011;64576;50.460;4.866;2023-05-07T02:07:45;20.95;;;9.90;;
75898;SDS011;64576;50.460;4.866;2023-05-07T02:10:10;25.45;;;10.63;;
75898;SDS011;64576;50.460;4.866;2023-05-07T02:12:36;20.45;;;9.70;;
75898;SDS011;64576;50.460;4.866;2023-05-07T02:15:01;23.52;;;10.48;;
75898;SDS011;64576;50.460;4.866;2023-05-07T02:17:27;26.30;;;11.95;;
75898;SDS011;64576;50.460;4.866;2023-05-07T02:19:52;18.95;;;9.27;;
75898;SDS011;64576;50.460;4.866;2023-05-07T02:22:18;21.17;;;8.80;;
75898;SDS011;64576;50.460;4.866;2023-05-07T02:24:43;18.42;;;9.32;;
75898;SDS011;64576;50.460;4.866;2023-05-07T02:27:09;18.25;;;9.48;;
75898;SDS011;64576;50.460;4.866;2023-05-07T02:29:35;24.90;;;11.07;;
75898;SDS011;64576;50.460;4.866;2023-05-07T02:32:00;19.88;;;10.02;;
75898;SDS011;64576;50.460;4.866;2023-05-07T02:34:26;29.27;;;12.32;;
75898;SDS011;64576;50.460;4.866;2023-05-07T02:36:51;30.88;;;12.48;;
75898;SDS011;64576;50.460;4.866;2023-05-07T02:39:17;27.52;;;11.75;;
75898;SDS011;64576;50.460;4.866;2023-05-07T02:41:42;26.95;;;11.25;;
75898;SDS011;64576;50.460;4.866;2023-05-07T02:44:07;24.98;;;11.25;;
75898;SDS011;64576;50.460;4.866;2023-05-07T02:46:33;27.13;;;12.25;;
75898;SDS011;64576;50.460;4.866;2023-05-07T02:48:58;20.85;;;10.90;;
75898;SDS011;64576;50.460;4.866;2023-05-07T02:51:23;24.58;;;10.07;;
75898;SDS011;64576;50.460;4.866;2023-05-07T02:53:50;18.02;;;10.20;;
75898;SDS011;64576;50.460;4.866;2023-05-07T02:56:16;26.77;;;11.40;;
75898;SDS011;64576;50.460;4.866;2023-05-07T02:58:41;17.92;;;10.82;;
75898;SDS011;64576;50.460;4.866;2023-05-07T03:01:07;19.80;;;10.30;;
75898;SDS011;64576;50.460;4.866;2023-05-07T03:03:33;19.98;;;10.65;;
75898;SDS011;64576;50.460;4.866;2023-05-07T03:05:58;20.58;;;10.52;;
75898;SDS011;64576;50.460;4.866;2023-05-07T03:08:24;21.05;;;10.88;;
75898;SDS011;64576;50.460;4.866;2023-05-07T03:10:50;23.70;;;10.05;;
75898;SDS011;64576;50.460;4.866;2023-05-07T03:13:15;17.65;;;8.77;;
75898;SDS011;64576;50.460;4.866;2023-05-07T03:15:41;20.17;;;10.20;;
75898;SDS011;64576;50.460;4.866;2023-05-07T03:18:06;19.73;;;10.27;;
75898;SDS011;64576;50.460;4.866;2023-05-07T03:20:31;28.33;;;10.20;;
75898;SDS011;64576;50.460;4.866;2023-05-07T03:22:57;19.27;;;9.80;;
75898;SDS011;64576;50.460;4.866;2023-05-07T03:25:22;20.75;;;10.32;;
75898;SDS011;64576;50.460;4.866;2023-05-07T03:27:48;25.77;;;12.48;;
75898;SDS011;64576;50.460;4.866;2023-05-07T03:30:13;24.23;;;10.85;;
75898;SDS011;64576;50.460;4.866;2023-05-07T03:32:39;23.30;;;9.68;;
75898;SDS011;64576;50.460;4.866;2023-05-07T03:35:05;25.58;;;9.48;;
75898;SDS011;64576;50.460;4.866;2023-05-07T03:37:30;19.63;;;10.05;;
75898;SDS011;64576;50.460;4.866;2023-05-07T03:39:56;29.40;;;12.20;;
75898;SDS011;64576;50.460;4.866;2023-05-07T03:42:21;24.05;;;11.55;;
75898;SDS011;64576;50.460;4.866;2023-05-07T03:44:47;23.52;;;12.13;;
75898;SDS011;64576;50.460;4.866;2023-05-07T03:47:12;26.80;;;12.35;;
75898;SDS011;64576;50.460;4.866;2023-05-07T03:49:38;25.05;;;12.77;;
75898;SDS011;64576;50.460;4.866;2023-05-07T03:52:04;25.35;;;12.05;;
75898;SDS011;64576;50.460;4.866;2023-05-07T03:54:30;23.23;;;11.98;;
75898;SDS011;64576;50.460;4.866;2023-05-07T03:56:56;22.58;;;12.18;;
75898;SDS011;64576;50.460;4.866;2023-05-07T03:59:21;19.33;;;10.77;;
75898;SDS011;64576;50.460;4.866;2023-05-07T04:01:47;21.83;;;9.82;;
75898;SDS011;64576;50.460;4.866;2023-05-07T04:04:13;20.30;;;9.85;;
75898;SDS011;64576;50.460;4.866;2023-05-07T04:06:39;25.48;;;10.02;;
75898;SDS011;64576;50.460;4.866;2023-05-07T04:09:05;15.57;;;8.50;;
75898;SDS011;64576;50.460;4.866;2023-05-07T04:11:31;17.20;;;8.95;;
75898;SDS011;64576;50.460;4.866;2023-05-07T04:13:56;17.35;;;9.52;;
75898;SDS011;64576;50.460;4.866;2023-05-07T04:16:22;22.25;;;9.70;;
75898;SDS011;64576;50.460;4.866;2023-05-07T04:18:47;19.25;;;9.60;;
75898;SDS011;64576;50.460;4.866;2023-05-07T04:21:16;27.75;;;10.68;;
75898;SDS011;64576;50.460;4.866;2023-05-07T04:23:42;24.55;;;12.45;;
75898;SDS011;64576;50.460;4.866;2023-05-07T04:26:08;22.33;;;10.65;;
75898;SDS011;64576;50.460;4.866;2023-05-07T04:28:34;18.27;;;10.70;;
75898;SDS011;64576;50.460;4.866;2023-05-07T04:31:00;25.30;;;10.55;;
75898;SDS011;64576;50.460;4.866;2023-05-07T04:33:25;25.65;;;11.68;;
75898;SDS011;64576;50.460;4.866;2023-05-07T04:35:50;21.42;;;10.75;;
75898;SDS011;64576;50.460;4.866;2023-05-07T04:38:16;21.00;;;9.15;;
75898;SDS011;64576;50.460;4.866;2023-05-07T04:40:43;22.70;;;10.45;;
75898;SDS011;64576;50.460;4.866;2023-05-07T04:43:09;22.23;;;9.98;;
75898;SDS011;64576;50.460;4.866;2023-05-07T04:45:35;17.65;;;10.23;;
75898;SDS011;64576;50.460;4.866;2023-05-07T04:48:01;22.08;;;10.85;;
75898;SDS011;64576;50.460;4.866;2023-05-07T04:50:26;20.60;;;9.38;;
75898;SDS011;64576;50.460;4.866;2023-05-07T04:52:51;18.50;;;10.38;;
75898;SDS011;64576;50.460;4.866;2023-05-07T04:55:17;19.73;;;9.23;;
75898;SDS011;64576;50.460;4.866;2023-05-07T04:57:42;19.80;;;10.55;;
75898;SDS011;64576;50.460;4.866;2023-05-07T05:00:08;20.48;;;10.15;;
75898;SDS011;64576;50.460;4.866;2023-05-07T05:02:34;21.85;;;11.07;;
75898;SDS011;64576;50.460;4.866;2023-05-07T05:05:00;16.15;;;8.50;;
75898;SDS011;64576;50.460;4.866;2023-05-07T05:07:27;18.50;;;9.30;;
75898;SDS011;64576;50.460;4.866;2023-05-07T05:09:52;16.88;;;9.18;;
75898;SDS011;64576;50.460;4.866;2023-05-07T05:12:18;15.18;;;8.82;;
75898;SDS011;64576;50.460;4.866;2023-05-07T05:14:43;20.42;;;10.85;;
75898;SDS011;64576;50.460;4.866;2023-05-07T05:17:09;21.23;;;9.65;;
75898;SDS011;64576;50.460;4.866;2023-05-07T05:19:34;16.20;;;9.40;;
75898;SDS011;64576;50.460;4.866;2023-05-07T05:21:59;19.05;;;8.18;;
75898;SDS011;64576;50.460;4.866;2023-05-07T05:24:26;16.23;;;8.70;;
75898;SDS011;64576;50.460;4.866;2023-05-07T05:26:52;17.35;;;8.93;;
75898;SDS011;64576;50.460;4.866;2023-05-07T05:29:18;20.42;;;9.73;;
75898;SDS011;64576;50.460;4.866;2023-05-07T05:31:43;17.58;;;8.50;;
75898;SDS011;64576;50.460;4.866;2023-05-07T05:34:09;20.77;;;11.52;;
75898;SDS011;64576;50.460;4.866;2023-05-07T05:36:34;18.27;;;9.68;;
75898;SDS011;64576;50.460;4.866;2023-05-07T05:39:00;16.10;;;8.77;;
75898;SDS011;64576;50.460;4.866;2023-05-07T05:41:25;20.65;;;8.98;;
75898;SDS011;64576;50.460;4.866;2023-05-07T05:43:50;18.85;;;8.98;;
75898;SDS011;64576;50.460;4.866;2023-05-07T05:46:16;15.68;;;8.32;;
75898;SDS011;64576;50.460;4.866;2023-05-07T05:48:41;19.40;;;8.18;;
75898;SDS011;64576;50.460;4.866;2023-05-07T05:51:06;16.25;;;9.45;;
75898;SDS011;64576;50.460;4.866;2023-05-07T05:53:32;13.75;;;7.25;;
75898;SDS011;64576;50.460;4.866;2023-05-07T05:55:57;15.30;;;7.47;;
75898;SDS011;64576;50.460;4.866;2023-05-07T05:58:23;16.85;;;6.82;;
75898;SDS011;64576;50.460;4.866;2023-05-07T06:00:48;21.83;;;7.45;;
75898;SDS011;64576;50.460;4.866;2023-05-07T06:03:17;13.25;;;7.22;;
75898;SDS011;64576;50.460;4.866;2023-05-07T06:05:42;15.23;;;7.65;;
75898;SDS011;64576;50.460;4.866;2023-05-07T06:08:08;16.25;;;8.70;;
75898;SDS011;64576;50.460;4.866;2023-05-07T06:10:33;14.68;;;6.97;;
75898;SDS011;64576;50.460;4.866;2023-05-07T06:13:01;12.55;;;6.72;;
75898;SDS011;64576;50.460;4.866;2023-05-07T06:15:26;11.93;;;7.13;;
75898;SDS011;64576;50.460;4.866;2023-05-07T06:17:52;14.98;;;6.47;;
75898;SDS011;64576;50.460;4.866;2023-05-07T06:20:17;14.60;;;7.25;;
75898;SDS011;64576;50.460;4.866;2023-05-07T06:22:43;14.32;;;7.13;;
75898;SDS011;64576;50.460;4.866;2023-05-07T06:25:08;17.05;;;7.75;;
75898;SDS011;64576;50.460;4.866;2023-05-07T06:27:34;14.45;;;7.57;;
75898;SDS011;64576;50.460;4.866;2023-05-07T06:29:59;11.40;;;6.82;;
75898;SDS011;64576;50.460;4.866;2023-05-07T06:32:25;11.30;;;6.57;;
75898;SDS011;64576;50.460;4.866;2023-05-07T06:34:50;16.30;;;6.72;;
75898;SDS011;64576;50.460;4.866;2023-05-07T06:37:16;14.02;;;7.38;;
75898;SDS011;64576;50.460;4.866;2023-05-07T06:39:41;11.30;;;6.32;;
75898;SDS011;64576;50.460;4.866;2023-05-07T06:42:07;10.45;;;6.75;;
75898;SDS011;64576;50.460;4.866;2023-05-07T06:44:32;13.60;;;8.00;;
75898;SDS011;64576;50.460;4.866;2023-05-07T06:46:57;16.00;;;7.82;;
75898;SDS011;64576;50.460;4.866;2023-05-07T06:49:23;13.65;;;7.07;;
75898;SDS011;64576;50.460;4.866;2023-05-07T06:51:48;20.88;;;8.50;;
75898;SDS011;64576;50.460;4.866;2023-05-07T06:54:14;17.20;;;8.15;;
75898;SDS011;64576;50.460;4.866;2023-05-07T06:56:39;12.55;;;7.13;;
75898;SDS011;64576;50.460;4.866;2023-05-07T06:59:05;15.25;;;7.45;;
75898;SDS011;64576;50.460;4.866;2023-05-07T07:01:31;12.55;;;7.32;;
75898;SDS011;64576;50.460;4.866;2023-05-07T07:03:57;14.55;;;7.60;;
75898;SDS011;64576;50.460;4.866;2023-05-07T07:06:22;18.08;;;9.25;;
75898;SDS011;64576;50.460;4.866;2023-05-07T07:08:48;14.45;;;8.02;;
75898;SDS011;64576;50.460;4.866;2023-05-07T07:11:13;15.30;;;7.93;;
75898;SDS011;64576;50.460;4.866;2023-05-07T07:13:40;16.23;;;8.70;;
75898;SDS011;64576;50.460;4.866;2023-05-07T07:16:06;16.13;;;8.02;;
75898;SDS011;64576;50.460;4.866;2023-05-07T07:18:31;18.02;;;8.50;;
75898;SDS011;64576;50.460;4.866;2023-05-07T07:20:56;18.73;;;9.10;;
75898;SDS011;64576;50.460;4.866;2023-05-07T07:23:22;16.45;;;8.15;;
75898;SDS011;64576;50.460;4.866;2023-05-07T07:25:47;22.50;;;8.65;;
75898;SDS011;64576;50.460;4.866;2023-05-07T07:28:13;20.70;;;9.25;;
75898;SDS011;64576;50.460;4.866;2023-05-07T07:30:38;18.17;;;9.68;;
75898;SDS011;64576;50.460;4.866;2023-05-07T07:33:04;14.10;;;8.40;;
75898;SDS011;64576;50.460;4.866;2023-05-07T07:35:33;17.48;;;9.18;;
75898;SDS011;64576;50.460;4.866;2023-05-07T07:37:59;25.17;;;10.13;;
75898;SDS011;64576;50.460;4.866;2023-05-07T07:40:25;26.02;;;10.55;;
75898;SDS011;64576;50.460;4.866;2023-05-07T07:42:51;20.77;;;10.90;;
75898;SDS011;64576;50.460;4.866;2023-05-07T07:45:16;19.27;;;9.88;;
75898;SDS011;64576;50.460;4.866;2023-05-07T07:47:42;21.02;;;9.13;;
75898;SDS011;64576;50.460;4.866;2023-05-07T07:50:08;25.02;;;10.27;;
75898;SDS011;64576;50.460;4.866;2023-05-07T07:52:33;35.55;;;10.57;;
75898;SDS011;64576;50.460;4.866;2023-05-07T07:54:59;18.92;;;10.10;;
75898;SDS011;64576;50.460;4.866;2023-05-07T07:57:25;23.15;;;9.77;;
75898;SDS011;64576;50.460;4.866;2023-05-07T07:59:50;18.92;;;10.52;;
75898;SDS011;64576;50.460;4.866;2023-05-07T08:02:16;19.63;;;8.82;;
75898;SDS011;64576;50.460;4.866;2023-05-07T08:04:42;20.13;;;9.73;;
75898;SDS011;64576;50.460;4.866;2023-05-07T08:07:09;20.63;;;9.13;;
75898;SDS011;64576;50.460;4.866;2023-05-07T08:09:35;20.40;;;10.02;;
75898;SDS011;64576;50.460;4.866;2023-05-07T08:12:01;20.60;;;9.75;;
75898;SDS011;64576;50.460;4.866;2023-05-07T08:14:26;23.17;;;10.70;;
75898;SDS011;64576;50.460;4.866;2023-05-07T08:16:53;19.25;;;9.60;;
75898;SDS011;64576;50.460;4.866;2023-05-07T08:19:19;20.70;;;10.00;;
75898;SDS011;64576;50.460;4.866;2023-05-07T08:21:44;18.40;;;10.63;;
75898;SDS011;64576;50.460;4.866;2023-05-07T08:24:12;19.15;;;10.77;;
75898;SDS011;64576;50.460;4.866;2023-05-07T08:26:38;17.88;;;10.65;;
75898;SDS011;64576;50.460;4.866;2023-05-07T08:29:04;23.45;;;9.48;;
75898;SDS011;64576;50.460;4.866;2023-05-07T08:31:29;21.63;;;9.68;;
75898;SDS011;64576;50.460;4.866;2023-05-07T08:33:55;21.20;;;10.60;;
75898;SDS011;64576;50.460;4.866;2023-05-07T08:36:22;15.27;;;8.32;;
75898;SDS011;64576;50.460;4.866;2023-05-07T08:38:47;25.85;;;10.00;;
75898;SDS011;64576;50.460;4.866;2023-05-07T08:41:13;21.23;;;10.70;;
75898;SDS011;64576;50.460;4.866;2023-05-07T08:43:38;19.20;;;9.80;;
75898;SDS011;64576;50.460;4.866;2023-05-07T08:46:06;21.20;;;9.57;;
75898;SDS011;64576;50.460;4.866;2023-05-07T08:48:34;25.48;;;11.32;;
75898;SDS011;64576;50.460;4.866;2023-05-07T08:51:00;23.42;;;10.98;;
75898;SDS011;64576;50.460;4.866;2023-05-07T08:53:26;21.00;;;10.95;;
75898;SDS011;64576;50.460;4.866;2023-05-07T08:55:51;22.10;;;12.90;;
75898;SDS011;64576;50.460;4.866;2023-05-07T08:58:28;25.83;;;12.10;;
75898;SDS011;64576;50.460;4.866;2023-05-07T09:00:53;19.60;;;9.75;;
75898;SDS011;64576;50.460;4.866;2023-05-07T09:03:19;23.00;;;10.65;;
75898;SDS011;64576;50.460;4.866;2023-05-07T09:05:44;28.20;;;12.15;;
75898;SDS011;64576;50.460;4.866;2023-05-07T09:08:10;21.85;;;11.82;;
75898;SDS011;64576;50.460;4.866;2023-05-07T09:10:39;25.63;;;11.48;;
75898;SDS011;64576;50.460;4.866;2023-05-07T09:13:04;23.92;;;12.88;;
75898;SDS011;64576;50.460;4.866;2023-05-07T09:15:30;20.20;;;10.52;;
75898;SDS011;64576;50.460;4.866;2023-05-07T09:17:59;20.70;;;12.00;;
75898;SDS011;64576;50.460;4.866;2023-05-07T09:20:26;23.95;;;13.00;;
75898;SDS011;64576;50.460;4.866;2023-05-07T09:22:51;24.52;;;12.35;;
75898;SDS011;64576;50.460;4.866;2023-05-07T09:25:18;22.23;;;12.23;;
75898;SDS011;64576;50.460;4.866;2023-05-07T09:27:54;24.58;;;12.18;;
75898;SDS011;64576;50.460;4.866;2023-05-07T09:30:19;23.20;;;12.40;;
75898;SDS011;64576;50.460;4.866;2023-05-07T09:32:45;22.55;;;11.95;;
75898;SDS011;64576;50.460;4.866;2023-05-07T09:35:16;20.67;;;11.18;;
75898;SDS011;64576;50.460;4.866;2023-05-07T09:37:43;23.08;;;11.40;;
75898;SDS011;64576;50.460;4.866;2023-05-07T09:40:09;27.55;;;12.77;;
75898;SDS011;64576;50.460;4.866;2023-05-07T09:42:48;20.45;;;11.63;;
75898;SDS011;64576;50.460;4.866;2023-05-07T09:45:14;23.33;;;12.10;;
75898;SDS011;64576;50.460;4.866;2023-05-07T09:47:42;19.42;;;11.48;;
75898;SDS011;64576;50.460;4.866;2023-05-07T09:50:09;18.90;;;11.60;;
75898;SDS011;64576;50.460;4.866;2023-05-07T09:52:37;25.50;;;13.32;;
75898;SDS011;64576;50.460;4.866;2023-05-07T09:55:04;20.73;;;11.77;;
75898;SDS011;64576;50.460;4.866;2023-05-07T09:57:31;23.50;;;11.63;;
75898;SDS011;64576;50.460;4.866;2023-05-07T09:59:58;24.38;;;11.82;;
75898;SDS011;64576;50.460;4.866;2023-05-07T10:02:25;20.38;;;12.05;;
75898;SDS011;64576;50.460;4.866;2023-05-07T10:04:54;26.70;;;13.32;;
75898;SDS011;64576;50.460;4.866;2023-05-07T10:07:20;20.58;;;11.60;;
75898;SDS011;64576;50.460;4.866;2023-05-07T10:09:46;20.48;;;11.65;;
75898;SDS011;64576;50.460;4.866;2023-05-07T10:12:12;20.38;;;12.05;;
75898;SDS011;64576;50.460;4.866;2023-05-07T10:14:38;19.75;;;12.18;;
75898;SDS011;64576;50.460;4.866;2023-05-07T10:17:04;25.52;;;12.80;;
75898;SDS011;64576;50.460;4.866;2023-05-07T10:19:30;24.27;;;13.27;;
75898;SDS011;64576;50.460;4.866;2023-05-07T10:22:01;20.00;;;11.07;;
75898;SDS011;64576;50.460;4.866;2023-05-07T10:24:31;21.52;;;12.57;;
75898;SDS011;64576;50.460;4.866;2023-05-07T10:27:02;20.98;;;13.05;;
75898;SDS011;64576;50.460;4.866;2023-05-07T10:29:33;27.42;;;13.75;;
75898;SDS011;64576;50.460;4.866;2023-05-07T10:34:56;24.80;;;13.75;;
75898;SDS011;64576;50.460;4.866;2023-05-07T10:37:24;21.42;;;12.25;;
75898;SDS011;64576;50.460;4.866;2023-05-07T10:39:50;22.48;;;13.05;;
75898;SDS011;64576;50.460;4.866;2023-05-07T10:42:17;23.90;;;13.63;;
75898;SDS011;64576;50.460;4.866;2023-05-07T10:44:43;22.70;;;11.25;;
75898;SDS011;64576;50.460;4.866;2023-05-07T10:47:09;24.02;;;13.13;;
75898;SDS011;64576;50.460;4.866;2023-05-07T10:49:37;24.23;;;11.35;;
75898;SDS011;64576;50.460;4.866;2023-05-07T10:52:12;27.88;;;14.20;;
75898;SDS011;64576;50.460;4.866;2023-05-07T10:54:49;22.08;;;13.15;;
75898;SDS011;64576;50.460;4.866;2023-05-07T10:57:40;22.00;;;13.75;;
75898;SDS011;64576;50.460;4.866;2023-05-07T11:05:24;21.25;;;11.93;;
75898;SDS011;64576;50.460;4.866;2023-05-07T11:07:59;21.08;;;12.40;;
75898;SDS011;64576;50.460;4.866;2023-05-07T11:10:47;18.85;;;11.60;;
75898;SDS011;64576;50.460;4.866;2023-05-07T11:13:14;17.33;;;10.40;;
75898;SDS011;64576;50.460;4.866;2023-05-07T11:15:43;18.45;;;10.10;;
75898;SDS011;64576;50.460;4.866;2023-05-07T11:18:11;17.75;;;10.63;;
75898;SDS011;64576;50.460;4.866;2023-05-07T11:20:47;24.73;;;11.88;;
75898;SDS011;64576;50.460;4.866;2023-05-07T11:28:28;20.65;;;10.40;;
75898;SDS011;64576;50.460;4.866;2023-05-07T11:30:54;18.10;;;11.38;;
75898;SDS011;64576;50.460;4.866;2023-05-07T11:33:21;19.25;;;11.50;;
75898;SDS011;64576;50.460;4.866;2023-05-07T11:35:47;20.27;;;12.38;;
75898;SDS011;64576;50.460;4.866;2023-05-07T11:38:13;20.80;;;12.75;;
75898;SDS011;64576;50.460;4.866;2023-05-07T11:40:48;21.50;;;12.32;;
75898;SDS011;64576;50.460;4.866;2023-05-07T11:43:15;20.23;;;12.57;;
75898;SDS011;64576;50.460;4.866;2023-05-07T11:45:41;20.08;;;10.38;;
75898;SDS011;64576;50.460;4.866;2023-05-07T11:48:06;25.17;;;10.88;;
75898;SDS011;64576;50.460;4.866;2023-05-07T11:50:32;20.00;;;12.63;;
75898;SDS011;64576;50.460;4.866;2023-05-07T11:52:57;22.17;;;12.27;;
75898;SDS011;64576;50.460;4.866;2023-05-07T11:55:23;17.17;;;10.30;;
75898;SDS011;64576;50.460;4.866;2023-05-07T11:57:50;22.95;;;12.75;;
75898;SDS011;64576;50.460;4.866;2023-05-07T12:00:16;22.23;;;12.32;;
75898;SDS011;64576;50.460;4.866;2023-05-07T12:02:42;19.85;;;11.68;;
75898;SDS011;64576;50.460;4.866;2023-05-07T12:05:10;19.55;;;11.65;;
75898;SDS011;64576;50.460;4.866;2023-05-07T12:07:35;14.38;;;8.98;;
75898;SDS011;64576;50.460;4.866;2023-05-07T12:10:07;14.90;;;8.45;;
75898;SDS011;64576;50.460;4.866;2023-05-07T12:12:39;18.27;;;10.47;;
75898;SDS011;64576;50.460;4.866;2023-05-07T12:15:17;15.77;;;8.80;;
75898;SDS011;64576;50.460;4.866;2023-05-07T12:17:42;13.80;;;7.10;;
75898;SDS011;64576;50.460;4.866;2023-05-07T12:20:09;13.73;;;7.78;;
75898;SDS011;64576;50.460;4.866;2023-05-07T12:22:35;6.22;;;4.03;;
75898;SDS011;64576;50.460;4.866;2023-05-07T12:25:01;8.13;;;4.40;;
75898;SDS011;64576;50.460;4.866;2023-05-07T12:27:27;9.13;;;4.95;;
75898;SDS011;64576;50.460;4.866;2023-05-07T12:29:53;9.90;;;3.88;;
75898;SDS011;64576;50.460;4.866;2023-05-07T12:32:20;9.68;;;4.65;;
75898;SDS011;64576;50.460;4.866;2023-05-07T12:34:46;7.97;;;5.50;;
75898;SDS011;64576;50.460;4.866;2023-05-07T12:37:14;9.68;;;5.20;;
75898;SDS011;64576;50.460;4.866;2023-05-07T12:39:49;7.70;;;5.40;;
75898;SDS011;64576;50.460;4.866;2023-05-07T12:42:32;9.30;;;5.97;;
75898;SDS011;64576;50.460;4.866;2023-05-07T12:45:00;13.88;;;6.53;;
75898;SDS011;64576;50.460;4.866;2023-05-07T12:47:33;11.15;;;6.35;;
75898;SDS011;64576;50.460;4.866;2023-05-07T12:49:58;9.35;;;6.13;;
75898;SDS011;64576;50.460;4.866;2023-05-07T12:52:24;9.68;;;6.57;;
75898;SDS011;64576;50.460;4.866;2023-05-07T12:54:50;11.30;;;6.45;;
75898;SDS011;64576;50.460;4.866;2023-05-07T12:57:15;14.20;;;7.32;;
75898;SDS011;64576;50.460;4.866;2023-05-07T12:59:44;10.02;;;6.78;;
75898;SDS011;64576;50.460;4.866;2023-05-07T13:02:09;10.52;;;6.72;;
75898;SDS011;64576;50.460;4.866;2023-05-07T13:04:35;9.70;;;6.50;;
75898;SDS011;64576;50.460;4.866;2023-05-07T13:07:02;11.55;;;6.85;;
75898;SDS011;64576;50.460;4.866;2023-05-07T13:09:28;10.18;;;5.47;;
75898;SDS011;64576;50.460;4.866;2023-05-07T13:11:54;11.70;;;7.20;;
75898;SDS011;64576;50.460;4.866;2023-05-07T13:14:20;15.32;;;6.80;;
75898;SDS011;64576;50.460;4.866;2023-05-07T13:16:46;10.38;;;6.45;;
75898;SDS011;64576;50.460;4.866;2023-05-07T13:19:12;12.27;;;6.18;;
75898;SDS011;64576;50.460;4.866;2023-05-07T13:21:37;11.98;;;6.38;;
75898;SDS011;64576;50.460;4.866;2023-05-07T13:24:03;13.15;;;6.13;;
75898;SDS011;64576;50.460;4.866;2023-05-07T13:26:29;11.23;;;7.07;;
75898;SDS011;64576;50.460;4.866;2023-05-07T13:28:56;10.10;;;6.43;;
75898;SDS011;64576;50.460;4.866;2023-05-07T13:31:22;12.32;;;6.50;;
75898;SDS011;64576;50.460;4.866;2023-05-07T13:33:47;12.38;;;6.32;;
75898;SDS011;64576;50.460;4.866;2023-05-07T13:36:12;13.93;;;6.90;;
75898;SDS011;64576;50.460;4.866;2023-05-07T13:38:41;10.50;;;5.95;;
75898;SDS011;64576;50.460;4.866;2023-05-07T13:41:06;11.20;;;6.40;;
75898;SDS011;64576;50.460;4.866;2023-05-07T13:43:32;10.82;;;6.40;;
75898;SDS011;64576;50.460;4.866;2023-05-07T13:46:00;14.07;;;6.72;;
75898;SDS011;64576;50.460;4.866;2023-05-07T13:48:26;11.45;;;7.05;;
75898;SDS011;64576;50.460;4.866;2023-05-07T13:50:53;11.57;;;7.05;;
75898;SDS011;64576;50.460;4.866;2023-05-07T13:53:18;35.38;;;8.23;;
75898;SDS011;64576;50.460;4.866;2023-05-07T13:55:44;19.13;;;8.85;;
75898;SDS011;64576;50.460;4.866;2023-05-07T13:58:10;16.55;;;8.30;;
75898;SDS011;64576;50.460;4.866;2023-05-07T14:00:35;17.00;;;9.98;;
75898;SDS011;64576;50.460;4.866;2023-05-07T14:03:01;14.32;;;9.07;;
75898;SDS011;64576;50.460;4.866;2023-05-07T14:05:26;18.38;;;8.68;;
75898;SDS011;64576;50.460;4.866;2023-05-07T14:07:53;17.67;;;8.63;;
75898;SDS011;64576;50.460;4.866;2023-05-07T14:10:19;16.75;;;8.65;;
75898;SDS011;64576;50.460;4.866;2023-05-07T14:12:45;14.80;;;9.30;;
75898;SDS011;64576;50.460;4.866;2023-05-07T14:15:12;19.15;;;9.13;;
75898;SDS011;64576;50.460;4.866;2023-05-07T14:17:37;18.17;;;10.32;;
75898;SDS011;64576;50.460;4.866;2023-05-07T14:20:03;17.30;;;8.60;;
75898;SDS011;64576;50.460;4.866;2023-05-07T14:22:29;14.60;;;8.13;;
75898;SDS011;64576;50.460;4.866;2023-05-07T14:24:54;13.90;;;8.93;;
75898;SDS011;64576;50.460;4.866;2023-05-07T14:27:20;17.48;;;9.05;;
75898;SDS011;64576;50.460;4.866;2023-05-07T14:29:45;20.17;;;8.43;;
75898;SDS011;64576;50.460;4.866;2023-05-07T14:32:15;14.32;;;8.93;;
75898;SDS011;64576;50.460;4.866;2023-05-07T14:34:41;13.40;;;6.80;;
75898;SDS011;64576;50.460;4.866;2023-05-07T14:37:07;9.93;;;6.53;;